sensor_id;sensor_type;location;lat;lon;timestamp;pressure;altitude;pressure_sealevel;temperature;humidity
80248;BME280;69560;52.206;21.018;2023-04-25T00:01:54;98902.42;;;15.09;47.81
80248;BME280;69560;52.206;21.018;2023-04-25T00:04:21;98901.31;;;15.06;47.88
80248;BME280;69560;52.206;21.018;2023-04-25T00:06:48;98896.41;;;15.03;47.94
80248;BME280;69560;52.206;21.018;2023-04-25T00:09:14;98895.59;;;15.01;48.20
80248;BME280;69560;52.206;21.018;2023-04-25T00:11:41;98888.80;;;15.01;48.33
80248;BME280;69560;52.206;21.018;2023-04-25T00:14:08;98890.16;;;15.01;48.43
80248;BME280;69560;52.206;21.018;2023-04-25T00:16:34;98890.24;;;15.01;48.42
80248;BME280;69560;52.206;21.018;2023-04-25T00:19:01;98892.88;;;15.01;48.45
80248;BME280;69560;52.206;21.018;2023-04-25T00:21:30;98894.46;;;15.00;48.73
80248;BME280;69560;52.206;21.018;2023-04-25T00:23:58;98896.16;;;15.00;48.70
80248;BME280;69560;52.206;21.018;2023-04-25T00:26:25;98894.77;;;14.98;48.86
80248;BME280;69560;52.206;21.018;2023-04-25T00:28:52;98897.50;;;14.97;48.97
80248;BME280;69560;52.206;21.018;2023-04-25T00:31:18;98897.83;;;14.96;48.93
80248;BME280;69560;52.206;21.018;2023-04-25T00:33:45;98898.02;;;14.94;49.01
80248;BME280;69560;52.206;21.018;2023-04-25T00:36:12;98898.20;;;14.93;49.13
80248;BME280;69560;52.206;21.018;2023-04-25T00:38:39;98896.27;;;14.95;49.22
80248;BME280;69560;52.206;21.018;2023-04-25T00:41:07;98893.54;;;14.96;49.40
80248;BME280;69560;52.206;21.018;2023-04-25T00:43:36;98893.73;;;14.98;49.61
80248;BME280;69560;52.206;21.018;2023-04-25T00:46:06;98899.19;;;15.00;49.61
80248;BME280;69560;52.206;21.018;2023-04-25T00:48:32;98893.26;;;15.01;49.59
80248;BME280;69560;52.206;21.018;2023-04-25T00:50:59;98894.66;;;15.03;49.68
80248;BME280;69560;52.206;21.018;2023-04-25T00:53:28;98902.09;;;15.03;49.87
80248;BME280;69560;52.206;21.018;2023-04-25T00:55:55;98902.27;;;15.01;49.87
80248;BME280;69560;52.206;21.018;2023-04-25T00:58:22;98904.06;;;15.00;49.94
80248;BME280;69560;52.206;21.018;2023-04-25T01:00:51;98907.65;;;15.00;50.17
80248;BME280;69560;52.206;21.018;2023-04-25T01:03:18;98904.57;;;14.98;50.23
80248;BME280;69560;52.206;21.018;2023-04-25T01:05:48;98908.83;;;14.97;50.23
80248;BME280;69560;52.206;21.018;2023-04-25T01:08:15;98910.84;;;14.96;50.46
80248;BME280;69560;52.206;21.018;2023-04-25T01:10:42;98910.02;;;14.93;50.55
80248;BME280;69560;52.206;21.018;2023-04-25T01:13:09;98906.68;;;14.92;50.75
80248;BME280;69560;52.206;21.018;2023-04-25T01:15:36;98904.17;;;14.90;50.87
80248;BME280;69560;52.206;21.018;2023-04-25T01:18:04;98903.65;;;14.88;51.04
80248;BME280;69560;52.206;21.018;2023-04-25T01:20:32;98900.34;;;14.90;51.10
80248;BME280;69560;52.206;21.018;2023-04-25T01:23:00;98900.20;;;14.93;51.12
80248;BME280;69560;52.206;21.018;2023-04-25T01:25:29;98897.36;;;14.96;51.10
80248;BME280;69560;52.206;21.018;2023-04-25T01:28:05;98895.20;;;15.00;51.41
80248;BME280;69560;52.206;21.018;2023-04-25T01:30:32;98894.92;;;15.02;51.53
80248;BME280;69560;52.206;21.018;2023-04-25T01:33:00;98890.80;;;15.04;51.59
80248;BME280;69560;52.206;21.018;2023-04-25T01:35:27;98896.16;;;15.03;51.72
80248;BME280;69560;52.206;21.018;2023-04-25T01:37:54;98894.04;;;15.02;51.81
80248;BME280;69560;52.206;21.018;2023-04-25T01:40:21;98902.35;;;15.01;51.72
80248;BME280;69560;52.206;21.018;2023-04-25T01:42:49;98902.79;;;14.99;52.04
80248;BME280;69560;52.206;21.018;2023-04-25T01:45:16;98899.91;;;14.96;52.05
80248;BME280;69560;52.206;21.018;2023-04-25T01:47:44;98897.89;;;14.93;51.92
80248;BME280;69560;52.206;21.018;2023-04-25T01:50:17;98898.20;;;14.89;52.24
80248;BME280;69560;52.206;21.018;2023-04-25T01:52:44;98898.77;;;14.85;52.47
80248;BME280;69560;52.206;21.018;2023-04-25T01:55:11;98898.92;;;14.81;52.54
80248;BME280;69560;52.206;21.018;2023-04-25T01:57:58;98899.59;;;14.76;52.55
80248;BME280;69560;52.206;21.018;2023-04-25T02:00:26;98894.54;;;14.73;52.72
80248;BME280;69560;52.206;21.018;2023-04-25T02:02:53;98898.33;;;14.74;53.12
80248;BME280;69560;52.206;21.018;2023-04-25T02:05:20;98894.74;;;14.74;53.01
80248;BME280;69560;52.206;21.018;2023-04-25T02:07:47;98894.48;;;14.75;53.23
80248;BME280;69560;52.206;21.018;2023-04-25T02:10:14;98892.90;;;14.74;53.30
80248;BME280;69560;52.206;21.018;2023-04-25T02:12:41;98893.02;;;14.71;53.52
80248;BME280;69560;52.206;21.018;2023-04-25T02:15:08;98888.95;;;14.68;53.42
80248;BME280;69560;52.206;21.018;2023-04-25T02:17:35;98886.05;;;14.66;53.54
80248;BME280;69560;52.206;21.018;2023-04-25T02:20:02;98884.39;;;14.64;53.75
80248;BME280;69560;52.206;21.018;2023-04-25T02:22:39;98882.67;;;14.63;53.92
80248;BME280;69560;52.206;21.018;2023-04-25T02:25:06;98877.80;;;14.64;53.79
80248;BME280;69560;52.206;21.018;2023-04-25T02:27:33;98875.54;;;14.65;53.93
80248;BME280;69560;52.206;21.018;2023-04-25T02:29:59;98875.73;;;14.67;53.92
80248;BME280;69560;52.206;21.018;2023-04-25T02:32:36;98881.35;;;14.69;54.08
80248;BME280;69560;52.206;21.018;2023-04-25T02:35:02;98884.40;;;14.69;53.88
80248;BME280;69560;52.206;21.018;2023-04-25T02:37:34;98885.44;;;14.68;54.01
80248;BME280;69560;52.206;21.018;2023-04-25T02:40:01;98881.27;;;14.65;54.06
80248;BME280;69560;52.206;21.018;2023-04-25T02:42:29;98884.18;;;14.63;54.14
80248;BME280;69560;52.206;21.018;2023-04-25T02:44:56;98882.48;;;14.60;53.98
80248;BME280;69560;52.206;21.018;2023-04-25T02:47:23;98881.08;;;14.59;54.05
80248;BME280;69560;52.206;21.018;2023-04-25T02:49:52;98877.79;;;14.55;54.21
80248;BME280;69560;52.206;21.018;2023-04-25T02:52:21;98874.73;;;14.52;54.18
80248;BME280;69560;52.206;21.018;2023-04-25T02:54:47;98871.58;;;14.51;54.34
80248;BME280;69560;52.206;21.018;2023-04-25T02:57:14;98868.20;;;14.52;54.29
80248;BME280;69560;52.206;21.018;2023-04-25T02:59:41;98866.50;;;14.53;54.32
80248;BME280;69560;52.206;21.018;2023-04-25T03:02:08;98870.40;;;14.54;54.14
80248;BME280;69560;52.206;21.018;2023-04-25T03:04:34;98868.90;;;14.53;54.37
80248;BME280;69560;52.206;21.018;2023-04-25T03:07:01;98868.40;;;14.51;54.29
80248;BME280;69560;52.206;21.018;2023-04-25T03:09:28;98865.61;;;14.45;54.19
80248;BME280;69560;52.206;21.018;2023-04-25T03:11:55;98869.27;;;14.42;54.51
80248;BME280;69560;52.206;21.018;2023-04-25T03:14:22;98868.66;;;14.41;54.43
80248;BME280;69560;52.206;21.018;2023-04-25T03:16:49;98869.01;;;14.40;54.51
80248;BME280;69560;52.206;21.018;2023-04-25T03:19:15;98867.60;;;14.37;54.77
80248;BME280;69560;52.206;21.018;2023-04-25T03:21:44;98871.77;;;14.36;54.82
80248;BME280;69560;52.206;21.018;2023-04-25T03:24:22;98874.37;;;14.38;54.73
80248;BME280;69560;52.206;21.018;2023-04-25T03:26:49;98872.65;;;14.40;54.91
80248;BME280;69560;52.206;21.018;2023-04-25T03:29:16;98875.86;;;14.44;54.94
80248;BME280;69560;52.206;21.018;2023-04-25T03:31:43;98875.02;;;14.46;54.90
80248;BME280;69560;52.206;21.018;2023-04-25T03:34:09;98879.19;;;14.45;54.97
80248;BME280;69560;52.206;21.018;2023-04-25T03:36:36;98880.70;;;14.45;54.99
80248;BME280;69560;52.206;21.018;2023-04-25T03:39:03;98881.29;;;14.43;55.15
80248;BME280;69560;52.206;21.018;2023-04-25T03:41:30;98881.92;;;14.38;55.06
80248;BME280;69560;52.206;21.018;2023-04-25T03:43:57;98883.03;;;14.35;55.21
80248;BME280;69560;52.206;21.018;2023-04-25T03:46:23;98887.09;;;14.31;55.10
80248;BME280;69560;52.206;21.018;2023-04-25T03:48:50;98891.85;;;14.25;55.33
80248;BME280;69560;52.206;21.018;2023-04-25T03:51:17;98894.23;;;14.21;55.27
80248;BME280;69560;52.206;21.018;2023-04-25T03:53:43;98895.25;;;14.17;55.73
80248;BME280;69560;52.206;21.018;2023-04-25T03:56:13;98895.79;;;14.14;55.54
80248;BME280;69560;52.206;21.018;2023-04-25T03:58:40;98893.64;;;14.14;55.84
80248;BME280;69560;52.206;21.018;2023-04-25T04:01:06;98892.73;;;14.11;55.74
80248;BME280;69560;52.206;21.018;2023-04-25T04:03:34;98893.55;;;14.09;55.83
80248;BME280;69560;52.206;21.018;2023-04-25T04:06:04;98893.73;;;14.08;56.05
80248;BME280;69560;52.206;21.018;2023-04-25T04:08:32;98895.11;;;14.06;56.05
80248;BME280;69560;52.206;21.018;2023-04-25T04:10:59;98895.61;;;14.05;56.15
80248;BME280;69560;52.206;21.018;2023-04-25T04:13:27;98900.75;;;14.03;55.96
80248;BME280;69560;52.206;21.018;2023-04-25T04:15:54;98901.55;;;14.03;56.15
80248;BME280;69560;52.206;21.018;2023-04-25T04:18:21;98903.61;;;14.03;56.11
80248;BME280;69560;52.206;21.018;2023-04-25T04:20:48;98903.11;;;14.04;56.29
80248;BME280;69560;52.206;21.018;2023-04-25T04:23:15;98907.23;;;14.06;56.04
80248;BME280;69560;52.206;21.018;2023-04-25T04:25:41;98905.73;;;14.05;56.01
80248;BME280;69560;52.206;21.018;2023-04-25T04:28:11;98910.75;;;14.05;56.03
80248;BME280;69560;52.206;21.018;2023-04-25T04:30:39;98908.27;;;14.05;56.15
80248;BME280;69560;52.206;21.018;2023-04-25T04:33:08;98909.95;;;14.04;56.30
80248;BME280;69560;52.206;21.018;2023-04-25T04:35:34;98909.49;;;14.04;56.14
80248;BME280;69560;52.206;21.018;2023-04-25T04:38:01;98910.23;;;14.02;56.10
80248;BME280;69560;52.206;21.018;2023-04-25T04:40:28;98906.79;;;13.98;56.23
80248;BME280;69560;52.206;21.018;2023-04-25T04:42:57;98912.59;;;14.00;56.29
80248;BME280;69560;52.206;21.018;2023-04-25T04:45:26;98914.95;;;14.02;56.31
80248;BME280;69560;52.206;21.018;2023-04-25T04:47:53;98918.88;;;14.04;56.39
80248;BME280;69560;52.206;21.018;2023-04-25T04:50:21;98923.42;;;14.04;56.41
80248;BME280;69560;52.206;21.018;2023-04-25T04:52:48;98921.07;;;14.02;56.22
80248;BME280;69560;52.206;21.018;2023-04-25T04:55:14;98922.36;;;14.01;56.38
80248;BME280;69560;52.206;21.018;2023-04-25T04:57:41;98927.23;;;14.00;56.48
80248;BME280;69560;52.206;21.018;2023-04-25T05:00:11;98928.09;;;14.01;56.58
80248;BME280;69560;52.206;21.018;2023-04-25T05:02:38;98926.35;;;14.01;56.66
80248;BME280;69560;52.206;21.018;2023-04-25T05:05:06;98925.15;;;14.01;56.65
80248;BME280;69560;52.206;21.018;2023-04-25T05:07:33;98929.98;;;14.03;56.86
80248;BME280;69560;52.206;21.018;2023-04-25T05:10:00;98922.91;;;14.07;56.68
80248;BME280;69560;52.206;21.018;2023-04-25T05:12:27;98919.15;;;14.08;56.75
80248;BME280;69560;52.206;21.018;2023-04-25T05:14:53;98923.78;;;14.07;56.83
80248;BME280;69560;52.206;21.018;2023-04-25T05:17:20;98923.23;;;14.06;56.70
80248;BME280;69560;52.206;21.018;2023-04-25T05:19:47;98927.39;;;14.05;56.85
80248;BME280;69560;52.206;21.018;2023-04-25T05:22:14;98928.45;;;14.04;57.23
80248;BME280;69560;52.206;21.018;2023-04-25T05:24:43;98931.98;;;14.02;57.01
80248;BME280;69560;52.206;21.018;2023-04-25T05:27:10;98936.81;;;13.99;57.12
80248;BME280;69560;52.206;21.018;2023-04-25T05:29:37;98938.98;;;13.98;57.27
80248;BME280;69560;52.206;21.018;2023-04-25T05:32:05;98939.77;;;13.98;57.26
80248;BME280;69560;52.206;21.018;2023-04-25T05:34:31;98935.45;;;14.00;57.32
80248;BME280;69560;52.206;21.018;2023-04-25T05:36:58;98933.77;;;14.00;57.27
80248;BME280;69560;52.206;21.018;2023-04-25T05:39:24;98933.20;;;14.01;57.30
80248;BME280;69560;52.206;21.018;2023-04-25T05:41:51;98935.63;;;14.04;57.34
80248;BME280;69560;52.206;21.018;2023-04-25T05:44:18;98938.14;;;14.06;57.39
80248;BME280;69560;52.206;21.018;2023-04-25T05:46:45;98937.41;;;14.07;57.28
80248;BME280;69560;52.206;21.018;2023-04-25T05:49:12;98936.70;;;14.07;57.67
80248;BME280;69560;52.206;21.018;2023-04-25T05:51:39;98933.91;;;14.06;57.42
80248;BME280;69560;52.206;21.018;2023-04-25T05:54:05;98934.16;;;14.06;57.29
80248;BME280;69560;52.206;21.018;2023-04-25T05:56:32;98940.67;;;14.07;57.41
80248;BME280;69560;52.206;21.018;2023-04-25T05:58:59;98942.90;;;14.07;57.47
80248;BME280;69560;52.206;21.018;2023-04-25T06:01:26;98948.84;;;14.10;57.55
80248;BME280;69560;52.206;21.018;2023-04-25T06:03:53;98950.38;;;14.13;57.60
80248;BME280;69560;52.206;21.018;2023-04-25T06:06:20;98950.50;;;14.15;57.46
80248;BME280;69560;52.206;21.018;2023-04-25T06:08:49;98952.96;;;14.16;57.53
80248;BME280;69560;52.206;21.018;2023-04-25T06:11:25;98957.88;;;14.17;57.31
80248;BME280;69560;52.206;21.018;2023-04-25T06:13:51;98955.19;;;14.16;57.34
80248;BME280;69560;52.206;21.018;2023-04-25T06:16:21;98960.05;;;14.15;57.13
80248;BME280;69560;52.206;21.018;2023-04-25T06:18:48;98960.96;;;14.13;57.22
80248;BME280;69560;52.206;21.018;2023-04-25T06:21:15;98968.58;;;14.11;57.16
80248;BME280;69560;52.206;21.018;2023-04-25T06:23:41;98975.63;;;14.08;57.29
80248;BME280;69560;52.206;21.018;2023-04-25T06:26:08;98983.07;;;14.06;57.30
80248;BME280;69560;52.206;21.018;2023-04-25T06:28:34;98987.59;;;14.07;57.14
80248;BME280;69560;52.206;21.018;2023-04-25T06:31:01;98997.63;;;14.01;57.01
80248;BME280;69560;52.206;21.018;2023-04-25T06:33:28;99000.52;;;13.93;56.81
80248;BME280;69560;52.206;21.018;2023-04-25T06:35:55;98997.72;;;13.88;57.24
80248;BME280;69560;52.206;21.018;2023-04-25T06:38:21;98995.43;;;13.87;57.58
80248;BME280;69560;52.206;21.018;2023-04-25T06:40:48;98997.42;;;13.87;57.68
80248;BME280;69560;52.206;21.018;2023-04-25T06:43:14;98999.36;;;13.85;57.90
80248;BME280;69560;52.206;21.018;2023-04-25T06:45:41;99001.20;;;13.84;57.84
80248;BME280;69560;52.206;21.018;2023-04-25T06:48:08;98997.41;;;13.82;57.85
80248;BME280;69560;52.206;21.018;2023-04-25T06:50:35;98990.11;;;13.81;57.59
80248;BME280;69560;52.206;21.018;2023-04-25T06:53:02;98983.45;;;13.79;57.41
80248;BME280;69560;52.206;21.018;2023-04-25T06:55:28;98981.48;;;13.77;57.20
80248;BME280;69560;52.206;21.018;2023-04-25T06:57:55;98975.80;;;13.73;57.30
80248;BME280;69560;52.206;21.018;2023-04-25T07:00:22;98973.92;;;13.71;57.45
80248;BME280;69560;52.206;21.018;2023-04-25T07:02:48;98978.16;;;13.69;57.62
80248;BME280;69560;52.206;21.018;2023-04-25T07:05:15;98975.50;;;13.66;57.56
80248;BME280;69560;52.206;21.018;2023-04-25T07:07:41;98978.07;;;13.64;57.74
80248;BME280;69560;52.206;21.018;2023-04-25T07:10:08;98981.29;;;13.62;57.96
80248;BME280;69560;52.206;21.018;2023-04-25T07:12:35;98983.85;;;13.61;57.83
80248;BME280;69560;52.206;21.018;2023-04-25T07:15:02;98984.95;;;13.62;58.03
80248;BME280;69560;52.206;21.018;2023-04-25T07:17:32;98987.27;;;13.67;58.41
80248;BME280;69560;52.206;21.018;2023-04-25T07:20:00;98982.27;;;13.72;58.61
80248;BME280;69560;52.206;21.018;2023-04-25T07:22:26;98982.08;;;13.80;58.73
80248;BME280;69560;52.206;21.018;2023-04-25T07:24:53;98979.49;;;13.88;58.63
80248;BME280;69560;52.206;21.018;2023-04-25T07:27:20;98982.55;;;13.92;58.51
80248;BME280;69560;52.206;21.018;2023-04-25T07:29:46;98979.89;;;14.00;58.25
80248;BME280;69560;52.206;21.018;2023-04-25T07:32:13;98983.11;;;14.08;58.52
80248;BME280;69560;52.206;21.018;2023-04-25T07:34:40;98982.58;;;14.12;58.19
80248;BME280;69560;52.206;21.018;2023-04-25T07:37:07;98986.95;;;14.13;58.13
80248;BME280;69560;52.206;21.018;2023-04-25T07:39:34;98988.35;;;14.16;57.97
80248;BME280;69560;52.206;21.018;2023-04-25T07:42:01;98990.58;;;14.15;57.76
80248;BME280;69560;52.206;21.018;2023-04-25T07:44:28;98997.64;;;14.12;57.68
80248;BME280;69560;52.206;21.018;2023-04-25T07:46:56;98996.80;;;14.09;57.72
80248;BME280;69560;52.206;21.018;2023-04-25T07:49:23;98993.08;;;14.08;57.44
80248;BME280;69560;52.206;21.018;2023-04-25T07:51:50;98994.66;;;14.08;57.49
80248;BME280;69560;52.206;21.018;2023-04-25T07:54:16;98991.34;;;14.07;57.31
80248;BME280;69560;52.206;21.018;2023-04-25T07:56:43;98992.34;;;14.09;57.51
80248;BME280;69560;52.206;21.018;2023-04-25T07:59:10;98993.66;;;14.11;57.56
80248;BME280;69560;52.206;21.018;2023-04-25T08:01:37;98992.23;;;14.11;57.53
80248;BME280;69560;52.206;21.018;2023-04-25T08:04:03;98992.98;;;14.09;57.54
80248;BME280;69560;52.206;21.018;2023-04-25T08:06:30;99000.98;;;14.07;57.56
80248;BME280;69560;52.206;21.018;2023-04-25T08:08:57;99005.54;;;14.06;57.57
80248;BME280;69560;52.206;21.018;2023-04-25T08:11:24;99005.16;;;14.04;57.49
80248;BME280;69560;52.206;21.018;2023-04-25T08:13:51;99006.63;;;14.02;57.35
80248;BME280;69560;52.206;21.018;2023-04-25T08:16:17;99012.04;;;14.01;57.41
80248;BME280;69560;52.206;21.018;2023-04-25T08:18:44;99012.16;;;13.98;57.38
80248;BME280;69560;52.206;21.018;2023-04-25T08:21:11;99013.44;;;13.99;57.34
80248;BME280;69560;52.206;21.018;2023-04-25T08:23:38;99015.60;;;13.98;57.34
80248;BME280;69560;52.206;21.018;2023-04-25T08:26:05;99018.27;;;13.96;57.19
80248;BME280;69560;52.206;21.018;2023-04-25T08:28:31;99018.91;;;13.95;57.12
80248;BME280;69560;52.206;21.018;2023-04-25T08:30:59;99021.90;;;13.91;57.15
80248;BME280;69560;52.206;21.018;2023-04-25T08:33:25;99024.58;;;13.87;56.95
80248;BME280;69560;52.206;21.018;2023-04-25T08:35:52;99026.70;;;13.83;57.00
80248;BME280;69560;52.206;21.018;2023-04-25T08:38:19;99026.46;;;13.77;56.86
80248;BME280;69560;52.206;21.018;2023-04-25T08:40:49;99026.61;;;13.73;57.32
80248;BME280;69560;52.206;21.018;2023-04-25T08:43:19;99032.80;;;13.67;57.02
80248;BME280;69560;52.206;21.018;2023-04-25T08:45:46;99033.25;;;13.63;57.07
80248;BME280;69560;52.206;21.018;2023-04-25T08:48:15;99037.35;;;13.60;56.90
80248;BME280;69560;52.206;21.018;2023-04-25T08:50:50;99042.86;;;13.59;57.17
80248;BME280;69560;52.206;21.018;2023-04-25T08:53:22;99047.63;;;13.59;57.13
80248;BME280;69560;52.206;21.018;2023-04-25T08:55:49;99055.37;;;13.58;57.03
80248;BME280;69560;52.206;21.018;2023-04-25T08:58:18;99056.51;;;13.56;56.92
80248;BME280;69560;52.206;21.018;2023-04-25T09:00:46;99059.45;;;13.55;57.14
80248;BME280;69560;52.206;21.018;2023-04-25T09:03:14;99058.73;;;13.55;57.09
80248;BME280;69560;52.206;21.018;2023-04-25T09:05:42;99055.17;;;13.54;57.06
80248;BME280;69560;52.206;21.018;2023-04-25T09:08:09;99057.69;;;13.51;57.07
80248;BME280;69560;52.206;21.018;2023-04-25T09:10:36;99060.76;;;13.47;56.95
80248;BME280;69560;52.206;21.018;2023-04-25T09:13:07;99067.31;;;13.43;56.96
80248;BME280;69560;52.206;21.018;2023-04-25T09:15:55;99068.70;;;13.40;57.09
80248;BME280;69560;52.206;21.018;2023-04-25T09:18:30;99069.34;;;13.39;57.03
80248;BME280;69560;52.206;21.018;2023-04-25T09:21:10;99069.98;;;13.40;57.00
80248;BME280;69560;52.206;21.018;2023-04-25T09:23:45;99073.48;;;13.40;56.98
80248;BME280;69560;52.206;21.018;2023-04-25T09:26:17;99075.30;;;13.40;57.07
80248;BME280;69560;52.206;21.018;2023-04-25T09:28:44;99085.41;;;13.39;57.00
80248;BME280;69560;52.206;21.018;2023-04-25T09:31:12;99085.66;;;13.40;57.26
80248;BME280;69560;52.206;21.018;2023-04-25T09:33:40;99092.17;;;13.39;56.84
80248;BME280;69560;52.206;21.018;2023-04-25T09:36:09;99090.27;;;13.39;57.10
80248;BME280;69560;52.206;21.018;2023-04-25T09:38:45;99096.73;;;13.38;57.18
80248;BME280;69560;52.206;21.018;2023-04-25T09:41:12;99096.31;;;13.39;56.92
80248;BME280;69560;52.206;21.018;2023-04-25T09:43:39;99099.05;;;13.37;57.20
80248;BME280;69560;52.206;21.018;2023-04-25T09:46:09;99095.39;;;13.37;56.94
80248;BME280;69560;52.206;21.018;2023-04-25T09:48:37;99098.34;;;13.37;56.98
80248;BME280;69560;52.206;21.018;2023-04-25T09:51:06;99098.35;;;13.35;56.78
80248;BME280;69560;52.206;21.018;2023-04-25T09:53:38;99099.39;;;13.35;56.89
80248;BME280;69560;52.206;21.018;2023-04-25T09:56:07;99099.99;;;13.38;56.82
80248;BME280;69560;52.206;21.018;2023-04-25T09:58:36;99099.75;;;13.39;56.71
80248;BME280;69560;52.206;21.018;2023-04-25T10:01:04;99102.60;;;13.41;56.77
80248;BME280;69560;52.206;21.018;2023-04-25T10:03:33;99103.45;;;13.42;56.74
80248;BME280;69560;52.206;21.018;2023-04-25T10:06:03;99104.02;;;13.42;56.58
80248;BME280;69560;52.206;21.018;2023-04-25T10:08:35;99104.89;;;13.42;56.92
80248;BME280;69560;52.206;21.018;2023-04-25T10:11:06;99104.89;;;13.42;56.77
80248;BME280;69560;52.206;21.018;2023-04-25T10:13:35;99104.64;;;13.44;56.98
80248;BME280;69560;52.206;21.018;2023-04-25T10:16:03;99104.84;;;13.46;57.15
80248;BME280;69560;52.206;21.018;2023-04-25T10:18:31;99105.25;;;13.45;57.07
80248;BME280;69560;52.206;21.018;2023-04-25T10:21:00;99104.80;;;13.42;56.85
80248;BME280;69560;52.206;21.018;2023-04-25T10:23:29;99107.15;;;13.39;56.83
80248;BME280;69560;52.206;21.018;2023-04-25T10:25:56;99108.70;;;13.35;56.83
80248;BME280;69560;52.206;21.018;2023-04-25T10:28:23;99110.25;;;13.32;56.56
80248;BME280;69560;52.206;21.018;2023-04-25T10:31:03;99109.79;;;13.31;56.71
80248;BME280;69560;52.206;21.018;2023-04-25T10:33:35;99111.04;;;13.32;56.79
80248;BME280;69560;52.206;21.018;2023-04-25T10:36:10;99109.92;;;13.33;56.78
80248;BME280;69560;52.206;21.018;2023-04-25T10:38:37;99108.88;;;13.33;56.86
80248;BME280;69560;52.206;21.018;2023-04-25T10:41:08;99109.84;;;13.32;57.01
80248;BME280;69560;52.206;21.018;2023-04-25T10:48:51;99111.08;;;13.35;57.25
80248;BME280;69560;52.206;21.018;2023-04-25T10:51:29;99109.73;;;13.36;56.95
80248;BME280;69560;52.206;21.018;2023-04-25T10:53:58;99107.27;;;13.36;57.21
80248;BME280;69560;52.206;21.018;2023-04-25T10:56:26;99110.92;;;13.36;57.12
80248;BME280;69560;52.206;21.018;2023-04-25T10:59:06;99104.16;;;13.35;57.11
80248;BME280;69560;52.206;21.018;2023-04-25T11:04:20;99107.05;;;13.34;57.12
80248;BME280;69560;52.206;21.018;2023-04-25T11:07:10;99109.88;;;13.36;56.89
80248;BME280;69560;52.206;21.018;2023-04-25T11:09:40;99106.92;;;13.38;56.84
80248;BME280;69560;52.206;21.018;2023-04-25T11:12:08;99114.86;;;13.41;56.85
80248;BME280;69560;52.206;21.018;2023-04-25T11:14:36;99118.52;;;13.41;56.64
80248;BME280;69560;52.206;21.018;2023-04-25T11:17:02;99117.55;;;13.41;56.65
80248;BME280;69560;52.206;21.018;2023-04-25T11:19:29;99114.68;;;13.42;56.74
80248;BME280;69560;52.206;21.018;2023-04-25T11:21:58;99115.96;;;13.41;56.64
80248;BME280;69560;52.206;21.018;2023-04-25T11:24:35;99108.39;;;13.42;56.52
80248;BME280;69560;52.206;21.018;2023-04-25T11:27:03;99109.42;;;13.42;56.65
80248;BME280;69560;52.206;21.018;2023-04-25T11:29:31;99109.96;;;13.43;56.67
80248;BME280;69560;52.206;21.018;2023-04-25T11:31:59;99110.83;;;13.46;56.68
80248;BME280;69560;52.206;21.018;2023-04-25T11:34:28;99111.27;;;13.49;56.73
80248;BME280;69560;52.206;21.018;2023-04-25T11:36:57;99116.08;;;13.53;56.64
80248;BME280;69560;52.206;21.018;2023-04-25T11:39:25;99114.55;;;13.54;56.37
80248;BME280;69560;52.206;21.018;2023-04-25T11:41:53;99115.44;;;13.53;56.00
80248;BME280;69560;52.206;21.018;2023-04-25T11:44:20;99108.74;;;13.53;56.10
80248;BME280;69560;52.206;21.018;2023-04-25T11:46:47;99106.12;;;13.53;55.88
80248;BME280;69560;52.206;21.018;2023-04-25T11:49:14;99108.90;;;13.54;55.79
80248;BME280;69560;52.206;21.018;2023-04-25T11:51:43;99112.89;;;13.54;55.69
80248;BME280;69560;52.206;21.018;2023-04-25T11:54:10;99115.26;;;13.55;55.63
80248;BME280;69560;52.206;21.018;2023-04-25T11:56:44;99113.61;;;13.53;55.40
80248;BME280;69560;52.206;21.018;2023-04-25T11:59:12;99107.40;;;13.53;55.44
80248;BME280;69560;52.206;21.018;2023-04-25T12:01:40;99110.08;;;13.54;55.54
80248;BME280;69560;52.206;21.018;2023-04-25T12:04:15;99111.50;;;13.56;55.39
80248;BME280;69560;52.206;21.018;2023-04-25T12:06:44;99112.85;;;13.56;55.46
80248;BME280;69560;52.206;21.018;2023-04-25T12:09:14;99110.02;;;13.54;55.32
80248;BME280;69560;52.206;21.018;2023-04-25T12:11:46;99110.56;;;13.55;55.27
80248;BME280;69560;52.206;21.018;2023-04-25T12:14:23;99110.16;;;13.56;55.10
80248;BME280;69560;52.206;21.018;2023-04-25T12:16:51;99108.88;;;13.56;55.16
80248;BME280;69560;52.206;21.018;2023-04-25T12:19:19;99109.02;;;13.56;55.35
80248;BME280;69560;52.206;21.018;2023-04-25T12:21:47;99104.64;;;13.58;55.23
80248;BME280;69560;52.206;21.018;2023-04-25T12:24:24;99108.05;;;13.58;55.10
80248;BME280;69560;52.206;21.018;2023-04-25T12:27:07;99105.00;;;13.61;55.27
80248;BME280;69560;52.206;21.018;2023-04-25T12:29:37;99105.13;;;13.63;55.19
80248;BME280;69560;52.206;21.018;2023-04-25T12:32:03;99106.23;;;13.65;55.29
80248;BME280;69560;52.206;21.018;2023-04-25T12:34:32;99106.53;;;13.67;55.10
80248;BME280;69560;52.206;21.018;2023-04-25T12:36:58;99108.59;;;13.68;54.99
80248;BME280;69560;52.206;21.018;2023-04-25T12:39:25;99106.43;;;13.68;55.01
80248;BME280;69560;52.206;21.018;2023-04-25T12:41:52;99102.77;;;13.69;54.57
80248;BME280;69560;52.206;21.018;2023-04-25T12:44:21;99102.77;;;13.69;54.52
80248;BME280;69560;52.206;21.018;2023-04-25T12:46:48;99103.58;;;13.68;54.35
80248;BME280;69560;52.206;21.018;2023-04-25T12:49:16;99101.04;;;13.67;54.13
80248;BME280;69560;52.206;21.018;2023-04-25T12:51:42;99103.92;;;13.65;54.17
80248;BME280;69560;52.206;21.018;2023-04-25T12:54:09;99100.66;;;13.64;54.13
80248;BME280;69560;52.206;21.018;2023-04-25T12:56:36;99098.29;;;13.64;53.98
80248;BME280;69560;52.206;21.018;2023-04-25T12:59:03;99102.33;;;13.65;53.93
80248;BME280;69560;52.206;21.018;2023-04-25T13:01:30;99097.89;;;13.64;53.85
80248;BME280;69560;52.206;21.018;2023-04-25T13:03:56;99100.83;;;13.64;53.63